Fort Mchenry — WD19336 — position and weather

sailwx.info

Track history (hours):
 
Tides and Currents Weather Stations Pressure Air Temp Water Temp Dewpoint Dewpoint Depression Visibility Wind Speed Wind Dir Waves Ship Positions

Fort Mchenry

Last reported at 2018-May-22 19:00 UTC. Time now 2018-May-22 19:15 UTC.
Position N 40°39' W 074°06'.

Length 28 m; draft 4 m.

Type: Towing. MMSI: 369131000.

Date/timePositionNaut miles runAvg speedWind from/ knotsBaromVisibWave heightAir tempDewpointWater temp
2018-May-22 19:00N 40°39' W 074°06'4 8.1
2018-May-22 18:30N 40°41' W 074°01'1 1.7
2018-May-22 18:00N 40°41' W 074°00'0 0.1
2018-May-22 17:30N 40°41' W 074°00'1 2.7
2018-May-22 17:00N 40°40' W 074°00'0 0.0
2018-May-22 16:30N 40°40' W 074°00'0 0.0
2018-May-22 16:00N 40°40' W 074°00'0 0.5
2018-May-22 15:30N 40°40' W 074°00'2 4.1
2018-May-22 15:01N 40°40' W 074°03'0 0.7
2018-May-22 14:30N 40°40' W 074°03'5 9.9
2018-May-22 14:00N 40°45' W 074°01'3 6.8
2018-May-22 13:30N 40°48' W 073°59'5 8.6
2018-May-22 12:58N 40°52' W 073°56'8 8.8
2018-May-22 12:03N 41°00' W 073°53'1 8.4
2018-May-22 11:57N 41°01' W 073°53'4 7.7
2018-May-22 11:28N 41°05' W 073°53'18 0.7
2018-May-21 08:00N 40°47' W 073°59'4 9.1
2018-May-21 07:30N 40°43' W 074°01'4 8.6
2018-May-21 07:00N 40°39' W 074°04'5 8.9
2018-May-21 06:30N 40°39' W 074°10'1 0.1
2018-May-21 00:35N 40°39' W 074°10'1 8.5
2018-May-21 00:27N 40°39' W 074°09'3 6.5
2018-May-21 00:00N 40°39' W 074°05'1 2.4
2018-May-20 23:30N 40°40' W 074°04'1 2.4
2018-May-20 23:00N 40°40' W 074°03'2 3.3
2018-May-20 22:30N 40°40' W 074°00'0 0.0
2018-May-20 22:00N 40°40' W 074°00'0 0.2
2018-May-20 21:30N 40°40' W 074°01'1 2.2
2018-May-20 21:01N 40°39' W 074°02'3 4.5
2018-May-20 20:16N 40°39' W 074°06'0 0.6
2018-May-20 19:50N 40°39' W 074°06'310.1
2018-May-20 19:31N 40°39' W 074°10'1 0.4
2018-May-20 15:46N 40°38' W 074°12'2 7.3
2018-May-20 15:30N 40°39' W 074°09'4 8.7
2018-May-20 15:00N 40°39' W 074°04'3 5.2
2018-May-20 14:30N 40°40' W 074°00'0 0.0
2018-May-20 14:00N 40°40' W 074°00'0 0.5
2018-May-20 13:29N 40°40' W 074°00'0 0.0
2018-May-20 12:59N 40°40' W 074°00'0 0.0
2018-May-20 12:29N 40°40' W 074°00'0 0.0
2018-May-20 11:59N 40°40' W 074°00'0 0.4
2018-May-20 11:21N 40°40' W 074°00'0 0.9
2018-May-20 11:00N 40°40' W 074°01'4 7.4
2018-May-20 10:28N 40°43' W 073°58'1 0.1
2018-May-19 21:37N 40°44' W 073°56'0 2.5
2018-May-19 21:29N 40°44' W 073°57'1 1.2
2018-May-19 20:56N 40°44' W 073°57'1 2.4
2018-May-19 20:31N 40°43' W 073°58'2 4.2
2018-May-19 20:00N 40°42' W 074°00'3 6.4
2018-May-19 19:31N 40°40' W 074°03'4 8.6
2018-May-19 19:00N 40°39' W 074°08'3 6.5
2018-May-19 18:30N 40°37' W 074°12'1 0.1
2018-May-19 05:39N 40°38' W 074°12'1 7.6
2018-May-19 05:29N 40°39' W 074°10'3 5.8
2018-May-19 05:00N 40°39' W 074°07'0 0.6
2018-May-19 04:26N 40°39' W 074°06'0 0.7
2018-May-19 03:57N 40°39' W 074°06'0 0.0
2018-May-19 03:30N 40°39' W 074°06'0 0.0
2018-May-19 03:00N 40°39' W 074°06'0 0.1
2018-May-19 02:30N 40°39' W 074°06'4 8.0
2018-May-19 02:01N 40°41' W 074°01'1 1.8
2018-May-19 01:28N 40°41' W 074°00'0 0.0
2018-May-19 00:58N 40°41' W 074°00'0 0.0
2018-May-19 00:28N 40°41' W 074°00'0 0.0
2018-May-18 23:58N 40°41' W 074°00'2 4.0
2018-May-18 23:31N 40°40' W 074°01'1 1.0
2018-May-18 22:58N 40°40' W 074°00'1 3.1
2018-May-18 22:30N 40°41' W 074°00'2 3.1
2018-May-18 22:01N 40°40' W 074°00'0 0.5
2018-May-18 21:29N 40°40' W 074°00'0 0.1
2018-May-18 20:59N 40°40' W 074°00'0 0.1
2018-May-18 20:29N 40°40' W 074°00'0 0.0
2018-May-18 19:59N 40°40' W 074°00'0 0.0
2018-May-18 19:29N 40°40' W 074°00'0 0.0
2018-May-18 18:59N 40°40' W 074°00'0 0.0
2018-May-18 18:29N 40°40' W 074°00'3 7.0
2018-May-18 18:00N 40°39' W 074°04'1 2.4
2018-May-18 17:29N 40°39' W 074°06'3 6.1
2018-May-18 16:58N 40°39' W 074°10'3 1.7
2018-May-18 15:15N 40°36' W 074°12'0 0.0
2018-May-18 02:09N 40°37' W 074°12'3 6.8
2018-May-18 01:46N 40°39' W 074°10'2 8.8
2018-May-18 01:30N 40°39' W 074°07'4 7.2
2018-May-18 01:01N 40°41' W 074°03'0 0.1
2018-May-18 00:28N 40°40' W 074°03'0 0.0
2018-May-17 23:58N 40°40' W 074°03'1 1.9
2018-May-17 23:30N 40°41' W 074°02'1 2.5
2018-May-17 23:00N 40°40' W 074°00'0 0.1
2018-May-17 22:30N 40°40' W 074°00'0 0.0
2018-May-17 22:00N 40°40' W 074°00'0 0.5
2018-May-17 21:30N 40°40' W 074°00'0 0.0
2018-May-17 21:00N 40°40' W 074°00'0 0.5
2018-May-17 20:30N 40°40' W 074°00'0 0.0
2018-May-17 20:00N 40°40' W 074°00'0 0.0
2018-May-17 19:30N 40°40' W 074°00'0 0.0
2018-May-17 19:00N 40°40' W 074°00'0 0.0
2018-May-17 18:30N 40°40' W 074°00'0 0.0
2018-May-17 18:00N 40°40' W 074°00'0 0.0
2018-May-17 17:30N 40°40' W 074°00'0 0.0
2018-May-17 17:00N 40°40' W 074°00'0 0.5
2018-May-17 16:29N 40°40' W 074°00'4 7.4
2018-May-17 16:00N 40°39' W 074°05'1 2.0
2018-May-17 15:30N 40°39' W 074°06'3 5.5
2018-May-17 14:59N 40°41' W 074°03'1 2.6
2018-May-17 14:31N 40°40' W 074°04'2 4.8
2018-May-17 14:00N 40°39' W 074°07'3 5.2
2018-May-17 13:31N 40°41' W 074°08'0 0.2
2018-May-17 12:08N 40°42' W 074°08'0 0.0
2018-May-17 09:45N 40°42' W 074°08'0 0.5
2018-May-17 09:12N 40°42' W 074°08'1 5.8
2018-May-17 09:00N 40°41' W 074°08'2 3.9
2018-May-17 08:29N 40°39' W 074°07'1 1.5
2018-May-17 07:54N 40°39' W 074°06'2 6.0
2018-May-17 07:29N 40°39' W 074°09'1 1.5
2018-May-17 07:00N 40°40' W 074°08'1 0.5
2018-May-17 04:39N 40°41' W 074°09'1 3.9
2018-May-17 04:30N 40°41' W 074°09'1 1.5
2018-May-17 04:00N 40°40' W 074°08'0 0.6
2018-May-17 03:28N 40°40' W 074°08'0 0.0
2018-May-17 02:55N 40°40' W 074°08'0 0.0
2018-May-17 02:28N 40°40' W 074°08'0 0.0
2018-May-17 01:19N 40°40' W 074°08'2 4.9
2018-May-17 01:00N 40°39' W 074°09'3 5.3
2018-May-17 00:30N 40°39' W 074°05'0 0.5
2018-May-17 00:00N 40°39' W 074°06'4 8.8
2018-May-16 23:30N 40°40' W 074°00'0 0.4
2018-May-16 22:59N 40°40' W 074°00'0 0.0
2018-May-16 22:29N 40°40' W 074°00'0 0.0
2018-May-16 21:59N 40°40' W 074°00'0 0.0
2018-May-16 21:29N 40°40' W 074°00'0 0.0
2018-May-16 20:59N 40°40' W 074°00'0 0.0
2018-May-16 20:26N 40°40' W 074°00'0 0.0
2018-May-16 19:59N 40°40' W 074°00'0 0.4
2018-May-16 19:30N 40°40' W 074°00'2 4.4
2018-May-16 19:00N 40°39' W 074°03'3 6.6
2018-May-16 18:30N 40°39' W 074°07'3 5.1
2018-May-16 18:00N 40°41' W 074°09'0 0.2
2018-May-16 17:24N 40°41' W 074°09'0 1.0
2018-May-16 16:58N 40°41' W 074°09'0 0.0
2018-May-16 15:55N 40°41' W 074°09'0 0.0
2018-May-16 15:28N 40°41' W 074°09'0 0.0
2018-May-16 14:49N 40°41' W 074°09'1 4.7
2018-May-16 14:30N 40°40' W 074°09'2 2.4
2018-May-16 13:29N 40°39' W 074°11'2 3.6
2018-May-16 13:00N 40°38' W 074°09'4 7.5
2018-May-16 12:30N 40°39' W 074°04'2 3.7
2018-May-16 12:00N 40°37' W 074°03'0 0.4
2018-May-16 11:05N 40°37' W 074°03'0 0.0
2018-May-16 10:59N 40°37' W 074°03'2 4.5
2018-May-16 10:31N 40°39' W 074°05'3 5.5
2018-May-16 10:00N 40°40' W 074°09'2 3.0
2018-May-16 09:29N 40°41' W 074°10'0 0.0
2018-May-16 08:56N 40°41' W 074°10'0 0.0
2018-May-16 08:26N 40°41' W 074°10'0 0.0
2018-May-16 07:59N 40°41' W 074°10'0 0.0
2018-May-16 07:29N 40°41' W 074°10'0 0.0
2018-May-16 06:59N 40°41' W 074°10'0 0.0
2018-May-16 06:29N 40°41' W 074°10'0 0.0
2018-May-16 05:59N 40°41' W 074°10'0 0.9
2018-May-16 05:28N 40°41' W 074°09'0 0.3
2018-May-16 05:00N 40°41' W 074°09'2 4.5
2018-May-16 04:29N 40°39' W 074°09'2 3.0
2018-May-16 04:00N 40°39' W 074°07'1 0.9
2018-May-16 03:17N 40°39' W 074°06'0 0.0
2018-May-16 02:59N 40°39' W 074°06'0 0.0
2018-May-16 02:11N 40°39' W 074°06'0 0.0
2018-May-16 01:53N 40°39' W 074°06'2 5.0
2018-May-16 01:30N 40°39' W 074°08'2 4.0
2018-May-16 00:58N 40°41' W 074°09'0 0.2
2018-May-16 00:14N 40°41' W 074°09'0 1.0
2018-May-15 23:58N 40°41' W 074°09'1 2.5
2018-May-15 23:26N 40°40' W 074°09'1 1.7
2018-May-15 22:59N 40°40' W 074°08'0 0.9
2018-May-15 22:30N 40°41' W 074°09'1 0.9
2018-May-15 21:51N 40°40' W 074°08'0 0.1
2018-May-15 21:30N 40°40' W 074°08'0 0.8
2018-May-15 20:59N 40°40' W 074°09'0 0.4
2018-May-15 20:29N 40°40' W 074°09'1 2.0
2018-May-15 20:00N 40°39' W 074°09'3 5.1
2018-May-15 19:30N 40°39' W 074°06'0 0.3
2018-May-15 18:56N 40°39' W 074°05'0 0.0
2018-May-15 18:23N 40°39' W 074°05'0 0.1
2018-May-15 17:59N 40°39' W 074°05'2 4.5
2018-May-15 17:28N 40°40' W 074°03'1 2.1
2018-May-15 16:59N 40°40' W 074°04'0 0.0
2018-May-15 16:29N 40°40' W 074°04'0 0.0
2018-May-15 15:59N 40°40' W 074°04'0 0.0
2018-May-15 15:29N 40°40' W 074°04'0 0.0
2018-May-15 14:59N 40°40' W 074°04'0 0.0
2018-May-15 14:29N 40°40' W 074°04'0 0.0
2018-May-15 13:59N 40°40' W 074°04'0 0.0
2018-May-15 13:29N 40°40' W 074°04'0 0.0
2018-May-15 12:59N 40°40' W 074°04'0 0.0
2018-May-15 12:30N 40°40' W 074°04'2 4.0
2018-May-15 11:59N 40°39' W 074°07'2 4.4
2018-May-15 11:30N 40°40' W 074°04'1 1.6
2018-May-15 10:53N 40°40' W 074°05'0 0.0
2018-May-15 10:29N 40°40' W 074°05'0 0.0
2018-May-15 09:56N 40°40' W 074°05'0 0.0
2018-May-15 09:29N 40°40' W 074°05'0 0.0
2018-May-15 08:59N 40°40' W 074°05'0 0.0
2018-May-15 08:29N 40°40' W 074°05'0 0.0
2018-May-15 07:59N 40°40' W 074°05'0 0.0
2018-May-15 07:30N 40°40' W 074°05'0 0.0
2018-May-15 06:59N 40°40' W 074°05'0 0.0
2018-May-15 06:29N 40°40' W 074°05'0 0.0
2018-May-15 05:56N 40°40' W 074°05'0 0.0
2018-May-15 05:29N 40°40' W 074°05'0 0.0
2018-May-15 04:59N 40°40' W 074°05'0 0.0
2018-May-15 04:27N 40°40' W 074°05'0 0.0
2018-May-15 03:59N 40°40' W 074°05'0 0.4
2018-May-15 03:31N 40°40' W 074°05'2 3.0
2018-May-15 02:59N 40°40' W 074°03'1 2.4
2018-May-15 02:30N 40°39' W 074°03'1 1.7
2018-May-15 01:51N 40°38' W 074°04'0 0.0
2018-May-15 01:30N 40°38' W 074°04'0 0.0
2018-May-15 01:00N 40°38' W 074°04'0 0.0
2018-May-15 00:27N 40°38' W 074°04'0 0.0
2018-May-14 23:54N 40°38' W 074°04'0 0.0
2018-May-14 23:27N 40°38' W 074°04'0 0.0
2018-May-14 22:57N 40°38' W 074°04'0 0.0
2018-May-14 22:30N 40°38' W 074°04'0 0.0
2018-May-14 22:00N 40°38' W 074°04'0 0.0
2018-May-14 21:30N 40°38' W 074°04'0 0.1
2018-May-14 21:00N 40°38' W 074°04'0 0.3
2018-May-14 20:27N 40°38' W 074°04'0 0.2
2018-May-14 20:00N 40°38' W 074°04'0 0.1
2018-May-14 19:28N 40°38' W 074°04'0 0.0
2018-May-14 18:58N 40°38' W 074°04'0 0.3
2018-May-14 18:29N 40°38' W 074°04'3 5.9
2018-May-14 18:01N 40°41' W 074°03'0 0.3
2018-May-14 17:28N 40°40' W 074°03'1 1.8
2018-May-14 17:01N 40°40' W 074°04'2 3.3
2018-May-14 16:26N 40°39' W 074°06'0 0.0
2018-May-14 15:59N 40°39' W 074°06'0 0.0
2018-May-14 15:29N 40°39' W 074°06'0 0.0
2018-May-14 14:59N 40°39' W 074°06'0 0.0
2018-May-14 14:30N 40°39' W 074°06'0 0.4
2018-May-14 13:46N 40°39' W 074°06'1 5.6
2018-May-14 13:30N 40°39' W 074°04'4 7.2
2018-May-14 13:00N 40°42' W 074°00'0 0.4
2018-May-14 12:28N 40°41' W 074°00'0 0.0
2018-May-14 11:55N 40°41' W 074°00'0 0.0
2018-May-14 11:28N 40°41' W 074°00'0 0.0
2018-May-14 10:58N 40°41' W 074°00'0 0.0
2018-May-14 10:28N 40°41' W 074°00'0 0.0
2018-May-14 09:58N 40°41' W 074°00'0 0.0
2018-May-14 09:28N 40°41' W 074°00'0 0.2
2018-May-14 09:00N 40°41' W 074°00'0 0.2
2018-May-14 08:30N 40°41' W 074°00'1 2.1
2018-May-14 08:00N 40°42' W 073°60'3 5.7
2018-May-14 07:30N 40°44' W 073°57'1 1.6
2018-May-14 07:00N 40°44' W 073°56'0 0.8
2018-May-14 06:30N 40°44' W 073°56'0 0.0
2018-May-13 23:13N 40°44' W 073°56'0 0.0
2018-May-13 22:53N 40°44' W 073°56'0 0.2
2018-May-13 22:25N 40°44' W 073°56'0 1.0
2018-May-13 22:01N 40°44' W 073°57'2 3.6
2018-May-13 21:31N 40°43' W 073°58'3 6.6
2018-May-13 21:01N 40°41' W 074°02'3 6.8
2018-May-13 20:31N 40°39' W 074°05'3 5.5
2018-May-13 20:00N 40°39' W 074°09'3 5.9
2018-May-13 19:29N 40°37' W 074°12'2 2.2
2018-May-13 18:33N 40°39' W 074°11'0 9.3
2018-May-13 18:30N 40°39' W 074°11'2 4.0
2018-May-13 17:57N 40°40' W 074°08'0 0.5
2018-May-13 17:31N 40°40' W 074°09'2 3.4
2018-May-13 17:00N 40°39' W 074°07'4 7.2
2018-May-13 16:30N 40°39' W 074°02'2 3.4
2018-May-13 16:01N 40°40' W 074°00'4 7.2
2018-May-13 15:30N 40°39' W 074°05'4 7.6
2018-May-13 14:58N 40°40' W 074°00'0 0.0
2018-May-13 14:28N 40°40' W 074°00'0 0.0
2018-May-13 13:58N 40°40' W 074°00'0 0.0
2018-May-13 13:28N 40°40' W 074°00'0 0.0
2018-May-13 13:01N 40°40' W 074°00'3 6.3
2018-May-13 12:30N 40°43' W 074°02'3 2.9
2018-May-13 11:22N 40°46' W 074°00'2 4.5
2018-May-13 11:01N 40°45' W 074°01'3 5.9
2018-May-13 10:31N 40°42' W 074°02'2 3.2
2018-May-13 09:59N 40°40' W 074°03'0 0.1
2018-May-13 09:29N 40°40' W 074°03'1 1.6
2018-May-13 09:01N 40°40' W 074°03'1 2.6
2018-May-13 08:29N 40°40' W 074°05'0 0.0
2018-May-13 07:56N 40°40' W 074°05'0 0.0
2018-May-13 07:29N 40°40' W 074°05'0 0.0
2018-May-13 06:59N 40°40' W 074°05'0 0.0
2018-May-13 06:29N 40°40' W 074°05'2 3.5
2018-May-13 06:00N 40°40' W 074°03'2 3.3
2018-May-13 05:30N 40°40' W 074°01'0 0.5
2018-May-13 05:01N 40°40' W 074°01'0 0.6
2018-May-13 04:29N 40°40' W 074°00'0 0.5
2018-May-13 03:56N 40°40' W 074°00'2 4.2
2018-May-13 03:30N 40°39' W 074°02'4 7.4
2018-May-13 03:00N 40°39' W 074°07'2 4.9
2018-May-13 02:30N 40°41' W 074°09'1 1.0
2018-May-13 01:52N 40°41' W 074°09'0 0.0
2018-May-13 01:07N 40°41' W 074°09'0 0.4
2018-May-13 00:59N 40°41' W 074°09'1 1.0
2018-May-13 00:28N 40°41' W 074°09'1 1.3
2018-May-12 23:58N 40°41' W 074°10'0 0.0
2018-May-12 23:25N 40°41' W 074°10'0 0.0
2018-May-12 22:58N 40°41' W 074°10'0 0.0
2018-May-12 22:28N 40°41' W 074°10'0 0.0
2018-May-12 21:58N 40°41' W 074°10'1 1.4
2018-May-12 21:28N 40°41' W 074°09'0 1.0
2018-May-12 21:00N 40°41' W 074°08'0 0.8
2018-May-12 20:30N 40°41' W 074°09'2 4.4
2018-May-12 20:00N 40°39' W 074°09'2 3.5
2018-May-12 19:28N 40°39' W 074°06'  
Track history (hours):
 
Tides and Currents Weather Stations Pressure Air Temp Water Temp Dewpoint Dewpoint Depression Visibility Wind Speed Wind Dir Waves Ship Positions

Fort Mchenry

Last reported at 2018-May-22 19:00 UTC. Time now 2018-May-22 19:15 UTC.
Position N 40°39' W 074°06'.

Length 28 m; draft 4 m.

Type: Towing. MMSI: 369131000.

Date/timePositionNaut miles runAvg speedWind from/ knotsBaromVisibWave heightAir tempDewpointWater temp
2018-May-22 19:00N 40°39' W 074°06'4 8.1
2018-May-22 18:30N 40°41' W 074°01'1 1.7
2018-May-22 18:00N 40°41' W 074°00'0 0.1
2018-May-22 17:30N 40°41' W 074°00'1 2.7
2018-May-22 17:00N 40°40' W 074°00'0 0.0
2018-May-22 16:30N 40°40' W 074°00'0 0.0
2018-May-22 16:00N 40°40' W 074°00'0 0.5
2018-May-22 15:30N 40°40' W 074°00'2 4.1
2018-May-22 15:01N 40°40' W 074°03'0 0.7
2018-May-22 14:30N 40°40' W 074°03'5 9.9
2018-May-22 14:00N 40°45' W 074°01'3 6.8
2018-May-22 13:30N 40°48' W 073°59'5 8.6
2018-May-22 12:58N 40°52' W 073°56'8 8.8
2018-May-22 12:03N 41°00' W 073°53'1 8.4
2018-May-22 11:57N 41°01' W 073°53'4 7.7
2018-May-22 11:28N 41°05' W 073°53'18 0.7
2018-May-21 08:00N 40°47' W 073°59'4 9.1
2018-May-21 07:30N 40°43' W 074°01'4 8.6
2018-May-21 07:00N 40°39' W 074°04'5 8.9
2018-May-21 06:30N 40°39' W 074°10'1 0.1
2018-May-21 00:35N 40°39' W 074°10'1 8.5
2018-May-21 00:27N 40°39' W 074°09'3 6.5
2018-May-21 00:00N 40°39' W 074°05'1 2.4
2018-May-20 23:30N 40°40' W 074°04'1 2.4
2018-May-20 23:00N 40°40' W 074°03'2 3.3
2018-May-20 22:30N 40°40' W 074°00'0 0.0
2018-May-20 22:00N 40°40' W 074°00'0 0.2
2018-May-20 21:30N 40°40' W 074°01'1 2.2
2018-May-20 21:01N 40°39' W 074°02'3 4.5
2018-May-20 20:16N 40°39' W 074°06'0 0.6
2018-May-20 19:50N 40°39' W 074°06'310.1
2018-May-20 19:31N 40°39' W 074°10'1 0.4
2018-May-20 15:46N 40°38' W 074°12'2 7.3
2018-May-20 15:30N 40°39' W 074°09'4 8.7
2018-May-20 15:00N 40°39' W 074°04'3 5.2
2018-May-20 14:30N 40°40' W 074°00'0 0.0
2018-May-20 14:00N 40°40' W 074°00'0 0.5
2018-May-20 13:29N 40°40' W 074°00'0 0.0
2018-May-20 12:59N 40°40' W 074°00'0 0.0
2018-May-20 12:29N 40°40' W 074°00'0 0.0
2018-May-20 11:59N 40°40' W 074°00'0 0.4
2018-May-20 11:21N 40°40' W 074°00'0 0.9
2018-May-20 11:00N 40°40' W 074°01'4 7.4
2018-May-20 10:28N 40°43' W 073°58'1 0.1
2018-May-19 21:37N 40°44' W 073°56'0 2.5
2018-May-19 21:29N 40°44' W 073°57'1 1.2
2018-May-19 20:56N 40°44' W 073°57'1 2.4
2018-May-19 20:31N 40°43' W 073°58'2 4.2
2018-May-19 20:00N 40°42' W 074°00'3 6.4
2018-May-19 19:31N 40°40' W 074°03'4 8.6
2018-May-19 19:00N 40°39' W 074°08'3 6.5
2018-May-19 18:30N 40°37' W 074°12'1 0.1
2018-May-19 05:39N 40°38' W 074°12'1 7.6
2018-May-19 05:29N 40°39' W 074°10'3 5.8
2018-May-19 05:00N 40°39' W 074°07'0 0.6
2018-May-19 04:26N 40°39' W 074°06'0 0.7
2018-May-19 03:57N 40°39' W 074°06'0 0.0
2018-May-19 03:30N 40°39' W 074°06'0 0.0
2018-May-19 03:00N 40°39' W 074°06'0 0.1
2018-May-19 02:30N 40°39' W 074°06'4 8.0
2018-May-19 02:01N 40°41' W 074°01'1 1.8
2018-May-19 01:28N 40°41' W 074°00'0 0.0
2018-May-19 00:58N 40°41' W 074°00'0 0.0
2018-May-19 00:28N 40°41' W 074°00'0 0.0
2018-May-18 23:58N 40°41' W 074°00'2 4.0
2018-May-18 23:31N 40°40' W 074°01'1 1.0
2018-May-18 22:58N 40°40' W 074°00'1 3.1
2018-May-18 22:30N 40°41' W 074°00'2 3.1
2018-May-18 22:01N 40°40' W 074°00'0 0.5
2018-May-18 21:29N 40°40' W 074°00'0 0.1
2018-May-18 20:59N 40°40' W 074°00'0 0.1
2018-May-18 20:29N 40°40' W 074°00'0 0.0
2018-May-18 19:59N 40°40' W 074°00'0 0.0
2018-May-18 19:29N 40°40' W 074°00'0 0.0
2018-May-18 18:59N 40°40' W 074°00'0 0.0
2018-May-18 18:29N 40°40' W 074°00'3 7.0
2018-May-18 18:00N 40°39' W 074°04'1 2.4
2018-May-18 17:29N 40°39' W 074°06'3 6.1
2018-May-18 16:58N 40°39' W 074°10'3 1.7
2018-May-18 15:15N 40°36' W 074°12'0 0.0
2018-May-18 02:09N 40°37' W 074°12'3 6.8
2018-May-18 01:46N 40°39' W 074°10'2 8.8
2018-May-18 01:30N 40°39' W 074°07'4 7.2
2018-May-18 01:01N 40°41' W 074°03'0 0.1
2018-May-18 00:28N 40°40' W 074°03'0 0.0
2018-May-17 23:58N 40°40' W 074°03'1 1.9
2018-May-17 23:30N 40°41' W 074°02'1 2.5
2018-May-17 23:00N 40°40' W 074°00'0 0.1
2018-May-17 22:30N 40°40' W 074°00'0 0.0
2018-May-17 22:00N 40°40' W 074°00'0 0.5
2018-May-17 21:30N 40°40' W 074°00'0 0.0
2018-May-17 21:00N 40°40' W 074°00'0 0.5
2018-May-17 20:30N 40°40' W 074°00'0 0.0
2018-May-17 20:00N 40°40' W 074°00'0 0.0
2018-May-17 19:30N 40°40' W 074°00'0 0.0
2018-May-17 19:00N 40°40' W 074°00'0 0.0
2018-May-17 18:30N 40°40' W 074°00'0 0.0
2018-May-17 18:00N 40°40' W 074°00'0 0.0
2018-May-17 17:30N 40°40' W 074°00'0 0.0
2018-May-17 17:00N 40°40' W 074°00'0 0.5
2018-May-17 16:29N 40°40' W 074°00'4 7.4
2018-May-17 16:00N 40°39' W 074°05'1 2.0
2018-May-17 15:30N 40°39' W 074°06'3 5.5
2018-May-17 14:59N 40°41' W 074°03'1 2.6
2018-May-17 14:31N 40°40' W 074°04'2 4.8
2018-May-17 14:00N 40°39' W 074°07'3 5.2
2018-May-17 13:31N 40°41' W 074°08'0 0.2
2018-May-17 12:08N 40°42' W 074°08'0 0.0
2018-May-17 09:45N 40°42' W 074°08'0 0.5
2018-May-17 09:12N 40°42' W 074°08'1 5.8
2018-May-17 09:00N 40°41' W 074°08'2 3.9
2018-May-17 08:29N 40°39' W 074°07'1 1.5
2018-May-17 07:54N 40°39' W 074°06'2 6.0
2018-May-17 07:29N 40°39' W 074°09'1 1.5
2018-May-17 07:00N 40°40' W 074°08'1 0.5
2018-May-17 04:39N 40°41' W 074°09'1 3.9
2018-May-17 04:30N 40°41' W 074°09'1 1.5
2018-May-17 04:00N 40°40' W 074°08'0 0.6
2018-May-17 03:28N 40°40' W 074°08'0 0.0
2018-May-17 02:55N 40°40' W 074°08'0 0.0
2018-May-17 02:28N 40°40' W 074°08'0 0.0
2018-May-17 01:19N 40°40' W 074°08'2 4.9
2018-May-17 01:00N 40°39' W 074°09'3 5.3
2018-May-17 00:30N 40°39' W 074°05'0 0.5
2018-May-17 00:00N 40°39' W 074°06'4 8.8
2018-May-16 23:30N 40°40' W 074°00'0 0.4
2018-May-16 22:59N 40°40' W 074°00'0 0.0
2018-May-16 22:29N 40°40' W 074°00'0 0.0
2018-May-16 21:59N 40°40' W 074°00'0 0.0
2018-May-16 21:29N 40°40' W 074°00'0 0.0
2018-May-16 20:59N 40°40' W 074°00'0 0.0
2018-May-16 20:26N 40°40' W 074°00'0 0.0
2018-May-16 19:59N 40°40' W 074°00'0 0.4
2018-May-16 19:30N 40°40' W 074°00'2 4.4
2018-May-16 19:00N 40°39' W 074°03'3 6.6
2018-May-16 18:30N 40°39' W 074°07'3 5.1
2018-May-16 18:00N 40°41' W 074°09'0 0.2
2018-May-16 17:24N 40°41' W 074°09'0 1.0
2018-May-16 16:58N 40°41' W 074°09'0 0.0
2018-May-16 15:55N 40°41' W 074°09'0 0.0
2018-May-16 15:28N 40°41' W 074°09'0 0.0
2018-May-16 14:49N 40°41' W 074°09'1 4.7
2018-May-16 14:30N 40°40' W 074°09'2 2.4
2018-May-16 13:29N 40°39' W 074°11'2 3.6
2018-May-16 13:00N 40°38' W 074°09'4 7.5
2018-May-16 12:30N 40°39' W 074°04'2 3.7
2018-May-16 12:00N 40°37' W 074°03'0 0.4
2018-May-16 11:05N 40°37' W 074°03'0 0.0
2018-May-16 10:59N 40°37' W 074°03'2 4.5
2018-May-16 10:31N 40°39' W 074°05'3 5.5
2018-May-16 10:00N 40°40' W 074°09'2 3.0
2018-May-16 09:29N 40°41' W 074°10'0 0.0
2018-May-16 08:56N 40°41' W 074°10'0 0.0
2018-May-16 08:26N 40°41' W 074°10'0 0.0
2018-May-16 07:59N 40°41' W 074°10'0 0.0
2018-May-16 07:29N 40°41' W 074°10'0 0.0
2018-May-16 06:59N 40°41' W 074°10'0 0.0
2018-May-16 06:29N 40°41' W 074°10'0 0.0
2018-May-16 05:59N 40°41' W 074°10'0 0.9
2018-May-16 05:28N 40°41' W 074°09'0 0.3
2018-May-16 05:00N 40°41' W 074°09'2 4.5
2018-May-16 04:29N 40°39' W 074°09'2 3.0
2018-May-16 04:00N 40°39' W 074°07'1 0.9
2018-May-16 03:17N 40°39' W 074°06'0 0.0
2018-May-16 02:59N 40°39' W 074°06'0 0.0
2018-May-16 02:11N 40°39' W 074°06'0 0.0
2018-May-16 01:53N 40°39' W 074°06'2 5.0
2018-May-16 01:30N 40°39' W 074°08'2 4.0
2018-May-16 00:58N 40°41' W 074°09'0 0.2
2018-May-16 00:14N 40°41' W 074°09'0 1.0
2018-May-15 23:58N 40°41' W 074°09'1 2.5
2018-May-15 23:26N 40°40' W 074°09'1 1.7
2018-May-15 22:59N 40°40' W 074°08'0 0.9
2018-May-15 22:30N 40°41' W 074°09'1 0.9
2018-May-15 21:51N 40°40' W 074°08'0 0.1
2018-May-15 21:30N 40°40' W 074°08'0 0.8
2018-May-15 20:59N 40°40' W 074°09'0 0.4
2018-May-15 20:29N 40°40' W 074°09'1 2.0
2018-May-15 20:00N 40°39' W 074°09'3 5.1
2018-May-15 19:30N 40°39' W 074°06'0 0.3
2018-May-15 18:56N 40°39' W 074°05'0 0.0
2018-May-15 18:23N 40°39' W 074°05'0 0.1
2018-May-15 17:59N 40°39' W 074°05'2 4.5
2018-May-15 17:28N 40°40' W 074°03'1 2.1
2018-May-15 16:59N 40°40' W 074°04'0 0.0
2018-May-15 16:29N 40°40' W 074°04'0 0.0
2018-May-15 15:59N 40°40' W 074°04'0 0.0
2018-May-15 15:29N 40°40' W 074°04'0 0.0
2018-May-15 14:59N 40°40' W 074°04'0 0.0
2018-May-15 14:29N 40°40' W 074°04'0 0.0
2018-May-15 13:59N 40°40' W 074°04'0 0.0
2018-May-15 13:29N 40°40' W 074°04'0 0.0
2018-May-15 12:59N 40°40' W 074°04'0 0.0
2018-May-15 12:30N 40°40' W 074°04'2 4.0
2018-May-15 11:59N 40°39' W 074°07'2 4.4
2018-May-15 11:30N 40°40' W 074°04'1 1.6
2018-May-15 10:53N 40°40' W 074°05'0 0.0
2018-May-15 10:29N 40°40' W 074°05'0 0.0
2018-May-15 09:56N 40°40' W 074°05'0 0.0
2018-May-15 09:29N 40°40' W 074°05'0 0.0
2018-May-15 08:59N 40°40' W 074°05'0 0.0
2018-May-15 08:29N 40°40' W 074°05'0 0.0
2018-May-15 07:59N 40°40' W 074°05'0 0.0
2018-May-15 07:30N 40°40' W 074°05'0 0.0
2018-May-15 06:59N 40°40' W 074°05'0 0.0
2018-May-15 06:29N 40°40' W 074°05'0 0.0
2018-May-15 05:56N 40°40' W 074°05'0 0.0
2018-May-15 05:29N 40°40' W 074°05'0 0.0
2018-May-15 04:59N 40°40' W 074°05'0 0.0
2018-May-15 04:27N 40°40' W 074°05'0 0.0
2018-May-15 03:59N 40°40' W 074°05'0 0.4
2018-May-15 03:31N 40°40' W 074°05'2 3.0
2018-May-15 02:59N 40°40' W 074°03'1 2.4
2018-May-15 02:30N 40°39' W 074°03'1 1.7
2018-May-15 01:51N 40°38' W 074°04'0 0.0
2018-May-15 01:30N 40°38' W 074°04'0 0.0
2018-May-15 01:00N 40°38' W 074°04'0 0.0
2018-May-15 00:27N 40°38' W 074°04'0 0.0
2018-May-14 23:54N 40°38' W 074°04'0 0.0
2018-May-14 23:27N 40°38' W 074°04'0 0.0
2018-May-14 22:57N 40°38' W 074°04'0 0.0
2018-May-14 22:30N 40°38' W 074°04'0 0.0
2018-May-14 22:00N 40°38' W 074°04'0 0.0
2018-May-14 21:30N 40°38' W 074°04'0 0.1
2018-May-14 21:00N 40°38' W 074°04'0 0.3
2018-May-14 20:27N 40°38' W 074°04'0 0.2
2018-May-14 20:00N 40°38' W 074°04'0 0.1
2018-May-14 19:28N 40°38' W 074°04'0 0.0
2018-May-14 18:58N 40°38' W 074°04'0 0.3
2018-May-14 18:29N 40°38' W 074°04'3 5.9
2018-May-14 18:01N 40°41' W 074°03'0 0.3
2018-May-14 17:28N 40°40' W 074°03'1 1.8
2018-May-14 17:01N 40°40' W 074°04'2 3.3
2018-May-14 16:26N 40°39' W 074°06'0 0.0
2018-May-14 15:59N 40°39' W 074°06'0 0.0
2018-May-14 15:29N 40°39' W 074°06'0 0.0
2018-May-14 14:59N 40°39' W 074°06'0 0.0
2018-May-14 14:30N 40°39' W 074°06'0 0.4
2018-May-14 13:46N 40°39' W 074°06'1 5.6
2018-May-14 13:30N 40°39' W 074°04'4 7.2
2018-May-14 13:00N 40°42' W 074°00'0 0.4
2018-May-14 12:28N 40°41' W 074°00'0 0.0
2018-May-14 11:55N 40°41' W 074°00'0 0.0
2018-May-14 11:28N 40°41' W 074°00'0 0.0
2018-May-14 10:58N 40°41' W 074°00'0 0.0
2018-May-14 10:28N 40°41' W 074°00'0 0.0
2018-May-14 09:58N 40°41' W 074°00'0 0.0
2018-May-14 09:28N 40°41' W 074°00'0 0.2
2018-May-14 09:00N 40°41' W 074°00'0 0.2
2018-May-14 08:30N 40°41' W 074°00'1 2.1
2018-May-14 08:00N 40°42' W 073°60'3 5.7
2018-May-14 07:30N 40°44' W 073°57'1 1.6
2018-May-14 07:00N 40°44' W 073°56'0 0.8
2018-May-14 06:30N 40°44' W 073°56'0 0.0
2018-May-13 23:13N 40°44' W 073°56'0 0.0
2018-May-13 22:53N 40°44' W 073°56'0 0.2
2018-May-13 22:25N 40°44' W 073°56'0 1.0
2018-May-13 22:01N 40°44' W 073°57'2 3.6
2018-May-13 21:31N 40°43' W 073°58'3 6.6
2018-May-13 21:01N 40°41' W 074°02'3 6.8
2018-May-13 20:31N 40°39' W 074°05'3 5.5
2018-May-13 20:00N 40°39' W 074°09'3 5.9
2018-May-13 19:29N 40°37' W 074°12'2 2.2
2018-May-13 18:33N 40°39' W 074°11'0 9.3
2018-May-13 18:30N 40°39' W 074°11'2 4.0
2018-May-13 17:57N 40°40' W 074°08'0 0.5
2018-May-13 17:31N 40°40' W 074°09'2 3.4
2018-May-13 17:00N 40°39' W 074°07'4 7.2
2018-May-13 16:30N 40°39' W 074°02'2 3.4
2018-May-13 16:01N 40°40' W 074°00'4 7.2
2018-May-13 15:30N 40°39' W 074°05'4 7.6
2018-May-13 14:58N 40°40' W 074°00'0 0.0
2018-May-13 14:28N 40°40' W 074°00'0 0.0
2018-May-13 13:58N 40°40' W 074°00'0 0.0
2018-May-13 13:28N 40°40' W 074°00'0 0.0
2018-May-13 13:01N 40°40' W 074°00'3 6.3
2018-May-13 12:30N 40°43' W 074°02'3 2.9
2018-May-13 11:22N 40°46' W 074°00'2 4.5
2018-May-13 11:01N 40°45' W 074°01'3 5.9
2018-May-13 10:31N 40°42' W 074°02'2 3.2
2018-May-13 09:59N 40°40' W 074°03'0 0.1
2018-May-13 09:29N 40°40' W 074°03'1 1.6
2018-May-13 09:01N 40°40' W 074°03'1 2.6
2018-May-13 08:29N 40°40' W 074°05'0 0.0
2018-May-13 07:56N 40°40' W 074°05'0 0.0
2018-May-13 07:29N 40°40' W 074°05'0 0.0
2018-May-13 06:59N 40°40' W 074°05'0 0.0
2018-May-13 06:29N 40°40' W 074°05'2 3.5
2018-May-13 06:00N 40°40' W 074°03'2 3.3
2018-May-13 05:30N 40°40' W 074°01'0 0.5
2018-May-13 05:01N 40°40' W 074°01'0 0.6
2018-May-13 04:29N 40°40' W 074°00'0 0.5
2018-May-13 03:56N 40°40' W 074°00'2 4.2
2018-May-13 03:30N 40°39' W 074°02'4 7.4
2018-May-13 03:00N 40°39' W 074°07'2 4.9
2018-May-13 02:30N 40°41' W 074°09'1 1.0
2018-May-13 01:52N 40°41' W 074°09'0 0.0
2018-May-13 01:07N 40°41' W 074°09'0 0.4
2018-May-13 00:59N 40°41' W 074°09'1 1.0
2018-May-13 00:28N 40°41' W 074°09'1 1.3
2018-May-12 23:58N 40°41' W 074°10'0 0.0
2018-May-12 23:25N 40°41' W 074°10'0 0.0
2018-May-12 22:58N 40°41' W 074°10'0 0.0
2018-May-12 22:28N 40°41' W 074°10'0 0.0
2018-May-12 21:58N 40°41' W 074°10'1 1.4
2018-May-12 21:28N 40°41' W 074°09'0 1.0
2018-May-12 21:00N 40°41' W 074°08'0 0.8
2018-May-12 20:30N 40°41' W 074°09'2 4.4
2018-May-12 20:00N 40°39' W 074°09'2 3.5
2018-May-12 19:28N 40°39' W 074°06'  

Dump ship's entire track history